Terminal Aerodrome Forecast
Issued by NWS

Home | Current Version | Previous Version | Text Only | Print | Product List | Glossary On
Versions: 1 2 3 4 5 6 7 8 9 10 11 12 13 14 15 16
000
FTUS44 KEPZ 311400 AAA
TAFDMN
TAF AMD
KDMN 311441Z 3115/0112 07006KT P6SM SCT003 OVC012
      TEMPO 3115/3117 3/4SM -RA BR OVC003
     FM311900 17007KT 6SM -SHRA BKN022 OVC060
     FM010300 25009KT P6SM SCT020 BKN060=

USA.gov is the U.S. government's official web portal to all federal, state and local government web resources and services.